Albaida, Spain
Current Conditions -  °F | °C
As of 10:30 AM on Friday 28 Nov 2014 (Local Time) from LEAL Reporting Station
Few Clouds Few Clouds  
Wind Chill: 64°   Ceiling: Unl
Heat Index: 64°   Visibility: 6mi
Dew Point: 55°   Wind: 13mph
Humidity: 73%   Direction: 140°SE
Pressure: 29.26"   Gusts: NA
Location:  38.84°N, 0.52°W
Report Text: LEAL 280930Z 14011KT 100V170 9999 FEW020 18/13 Q0991 NOSIG
Loading
Personal Weather Stations






























Interactive Weather Map New forecast layout! Learn more

10-Day Weather Forecast

Advertisements
Track Severe Weather on mobile